sensor_id;sensor_type;location;lat;lon;timestamp;P1;durP1;ratioP1;P2;durP2;ratioP2
13331;SDS011;6735;51.456;12.626;2022-10-23T00:00:58;14.57;;;13.17;;
13331;SDS011;6735;51.456;12.626;2022-10-23T00:03:23;17.47;;;12.10;;
13331;SDS011;6735;51.456;12.626;2022-10-23T00:05:49;15.43;;;12.17;;
13331;SDS011;6735;51.456;12.626;2022-10-23T00:08:15;15.73;;;13.30;;
13331;SDS011;6735;51.456;12.626;2022-10-23T00:10:41;12.83;;;11.63;;
13331;SDS011;6735;51.456;12.626;2022-10-23T00:13:07;17.63;;;12.97;;
13331;SDS011;6735;51.456;12.626;2022-10-23T00:15:34;15.13;;;12.07;;
13331;SDS011;6735;51.456;12.626;2022-10-23T00:18:00;13.63;;;11.47;;
13331;SDS011;6735;51.456;12.626;2022-10-23T00:20:26;16.30;;;12.60;;
13331;SDS011;6735;51.456;12.626;2022-10-23T00:22:52;16.93;;;11.23;;
13331;SDS011;6735;51.456;12.626;2022-10-23T00:25:17;15.60;;;11.87;;
13331;SDS011;6735;51.456;12.626;2022-10-23T00:27:44;15.60;;;12.17;;
13331;SDS011;6735;51.456;12.626;2022-10-23T00:30:09;15.10;;;12.43;;
13331;SDS011;6735;51.456;12.626;2022-10-23T00:32:35;12.77;;;11.43;;
13331;SDS011;6735;51.456;12.626;2022-10-23T00:35:01;13.20;;;11.77;;
13331;SDS011;6735;51.456;12.626;2022-10-23T00:37:27;17.83;;;12.23;;
13331;SDS011;6735;51.456;12.626;2022-10-23T00:39:53;11.10;;;9.87;;
13331;SDS011;6735;51.456;12.626;2022-10-23T00:42:19;12.00;;;10.50;;
13331;SDS011;6735;51.456;12.626;2022-10-23T00:47:11;13.10;;;10.30;;
13331;SDS011;6735;51.456;12.626;2022-10-23T00:49:37;12.37;;;10.97;;
13331;SDS011;6735;51.456;12.626;2022-10-23T00:52:04;14.43;;;10.80;;
13331;SDS011;6735;51.456;12.626;2022-10-23T00:54:33;14.77;;;10.50;;
13331;SDS011;6735;51.456;12.626;2022-10-23T00:57:03;14.53;;;10.83;;
13331;SDS011;6735;51.456;12.626;2022-10-23T00:59:30;12.27;;;9.97;;
13331;SDS011;6735;51.456;12.626;2022-10-23T01:01:56;12.83;;;9.53;;
13331;SDS011;6735;51.456;12.626;2022-10-23T01:04:23;15.57;;;9.87;;
13331;SDS011;6735;51.456;12.626;2022-10-23T01:06:52;10.70;;;9.60;;
13331;SDS011;6735;51.456;12.626;2022-10-23T01:09:28;10.77;;;9.27;;
13331;SDS011;6735;51.456;12.626;2022-10-23T01:23:16;11.23;;;8.90;;
13331;SDS011;6735;51.456;12.626;2022-10-23T01:28:51;13.73;;;9.10;;
13331;SDS011;6735;51.456;12.626;2022-10-23T01:31:29;10.60;;;9.57;;
13331;SDS011;6735;51.456;12.626;2022-10-23T01:34:12;10.70;;;8.50;;
13331;SDS011;6735;51.456;12.626;2022-10-23T01:36:42;10.37;;;8.20;;
13331;SDS011;6735;51.456;12.626;2022-10-23T01:39:11;12.63;;;8.77;;
13331;SDS011;6735;51.456;12.626;2022-10-23T01:41:49;11.63;;;8.77;;
13331;SDS011;6735;51.456;12.626;2022-10-23T01:46:48;15.73;;;9.70;;
13331;SDS011;6735;51.456;12.626;2022-10-23T01:49:16;11.37;;;9.10;;
13331;SDS011;6735;51.456;12.626;2022-10-23T01:51:44;10.13;;;8.27;;
13331;SDS011;6735;51.456;12.626;2022-10-23T01:54:13;10.00;;;7.87;;
13331;SDS011;6735;51.456;12.626;2022-10-23T01:56:43;9.73;;;8.07;;
13331;SDS011;6735;51.456;12.626;2022-10-23T01:59:13;13.33;;;8.90;;
13331;SDS011;6735;51.456;12.626;2022-10-23T02:01:44;10.40;;;8.50;;
13331;SDS011;6735;51.456;12.626;2022-10-23T02:04:13;12.60;;;7.67;;
13331;SDS011;6735;51.456;12.626;2022-10-23T02:06:43;12.67;;;8.13;;
13331;SDS011;6735;51.456;12.626;2022-10-23T02:09:08;10.93;;;8.73;;
13331;SDS011;6735;51.456;12.626;2022-10-23T02:11:36;9.20;;;8.30;;
13331;SDS011;6735;51.456;12.626;2022-10-23T02:14:27;12.00;;;8.10;;
13331;SDS011;6735;51.456;12.626;2022-10-23T02:17:04;9.97;;;8.83;;
13331;SDS011;6735;51.456;12.626;2022-10-23T02:19:45;13.70;;;8.53;;
13331;SDS011;6735;51.456;12.626;2022-10-23T02:22:26;8.93;;;7.90;;
13331;SDS011;6735;51.456;12.626;2022-10-23T02:24:55;16.23;;;8.70;;
13331;SDS011;6735;51.456;12.626;2022-10-23T02:27:40;12.07;;;8.83;;
13331;SDS011;6735;51.456;12.626;2022-10-23T02:30:09;10.73;;;8.23;;
13331;SDS011;6735;51.456;12.626;2022-10-23T02:32:38;10.50;;;8.20;;
13331;SDS011;6735;51.456;12.626;2022-10-23T02:35:07;11.53;;;8.70;;
13331;SDS011;6735;51.456;12.626;2022-10-23T02:37:34;9.60;;;7.60;;
13331;SDS011;6735;51.456;12.626;2022-10-23T02:39:59;10.90;;;9.33;;
13331;SDS011;6735;51.456;12.626;2022-10-23T02:42:28;9.97;;;8.77;;
13331;SDS011;6735;51.456;12.626;2022-10-23T02:55:41;13.70;;;7.83;;
13331;SDS011;6735;51.456;12.626;2022-10-23T03:01:00;8.40;;;7.27;;
13331;SDS011;6735;51.456;12.626;2022-10-23T03:03:48;12.53;;;8.00;;
13331;SDS011;6735;51.456;12.626;2022-10-23T03:06:17;8.03;;;7.23;;
13331;SDS011;6735;51.456;12.626;2022-10-23T03:08:48;8.43;;;7.03;;
13331;SDS011;6735;51.456;12.626;2022-10-23T03:11:16;10.67;;;7.63;;
13331;SDS011;6735;51.456;12.626;2022-10-23T03:13:42;8.13;;;7.20;;
13331;SDS011;6735;51.456;12.626;2022-10-23T03:16:07;13.80;;;8.27;;
13331;SDS011;6735;51.456;12.626;2022-10-23T03:18:33;8.83;;;7.80;;
13331;SDS011;6735;51.456;12.626;2022-10-23T03:20:59;11.27;;;8.00;;
13331;SDS011;6735;51.456;12.626;2022-10-23T03:23:24;9.57;;;8.57;;
13331;SDS011;6735;51.456;12.626;2022-10-23T03:25:50;10.13;;;7.20;;
13331;SDS011;6735;51.456;12.626;2022-10-23T03:28:17;11.63;;;7.83;;
13331;SDS011;6735;51.456;12.626;2022-10-23T03:30:42;9.10;;;8.20;;
13331;SDS011;6735;51.456;12.626;2022-10-23T03:33:07;10.10;;;7.80;;
13331;SDS011;6735;51.456;12.626;2022-10-23T03:35:33;11.87;;;8.27;;
13331;SDS011;6735;51.456;12.626;2022-10-23T03:37:58;10.00;;;8.37;;
13331;SDS011;6735;51.456;12.626;2022-10-23T03:40:24;11.97;;;8.07;;
13331;SDS011;6735;51.456;12.626;2022-10-23T03:42:49;10.87;;;8.20;;
13331;SDS011;6735;51.456;12.626;2022-10-23T03:45:15;9.37;;;8.43;;
13331;SDS011;6735;51.456;12.626;2022-10-23T03:47:41;11.70;;;9.40;;
13331;SDS011;6735;51.456;12.626;2022-10-23T03:50:07;13.77;;;10.17;;
13331;SDS011;6735;51.456;12.626;2022-10-23T03:52:33;14.73;;;10.60;;
13331;SDS011;6735;51.456;12.626;2022-10-23T03:54:59;11.07;;;9.70;;
13331;SDS011;6735;51.456;12.626;2022-10-23T03:57:24;11.20;;;9.10;;
13331;SDS011;6735;51.456;12.626;2022-10-23T03:59:50;11.90;;;10.53;;
13331;SDS011;6735;51.456;12.626;2022-10-23T04:02:16;15.13;;;10.50;;
13331;SDS011;6735;51.456;12.626;2022-10-23T04:04:42;11.70;;;9.30;;
13331;SDS011;6735;51.456;12.626;2022-10-23T04:07:07;11.13;;;9.83;;
13331;SDS011;6735;51.456;12.626;2022-10-23T04:09:33;10.47;;;8.80;;
13331;SDS011;6735;51.456;12.626;2022-10-23T04:11:58;9.30;;;8.40;;
13331;SDS011;6735;51.456;12.626;2022-10-23T04:14:24;10.80;;;7.93;;
13331;SDS011;6735;51.456;12.626;2022-10-23T04:16:50;11.47;;;9.63;;
13331;SDS011;6735;51.456;12.626;2022-10-23T04:19:15;11.07;;;8.87;;
13331;SDS011;6735;51.456;12.626;2022-10-23T04:21:41;18.43;;;11.10;;
13331;SDS011;6735;51.456;12.626;2022-10-23T04:24:07;12.10;;;10.33;;
13331;SDS011;6735;51.456;12.626;2022-10-23T04:26:33;13.10;;;10.40;;
13331;SDS011;6735;51.456;12.626;2022-10-23T04:28:58;9.83;;;8.77;;
13331;SDS011;6735;51.456;12.626;2022-10-23T04:31:24;10.67;;;9.50;;
13331;SDS011;6735;51.456;12.626;2022-10-23T04:33:49;12.73;;;8.77;;
13331;SDS011;6735;51.456;12.626;2022-10-23T04:36:15;14.00;;;9.37;;
13331;SDS011;6735;51.456;12.626;2022-10-23T04:38:41;10.20;;;8.40;;
13331;SDS011;6735;51.456;12.626;2022-10-23T04:41:06;10.10;;;9.13;;
13331;SDS011;6735;51.456;12.626;2022-10-23T04:43:32;11.57;;;8.60;;
13331;SDS011;6735;51.456;12.626;2022-10-23T04:45:57;12.87;;;8.10;;
13331;SDS011;6735;51.456;12.626;2022-10-23T04:48:23;9.27;;;8.37;;
13331;SDS011;6735;51.456;12.626;2022-10-23T04:50:58;9.87;;;7.63;;
13331;SDS011;6735;51.456;12.626;2022-10-23T04:53:27;9.17;;;8.20;;
13331;SDS011;6735;51.456;12.626;2022-10-23T04:55:54;8.83;;;7.47;;
13331;SDS011;6735;51.456;12.626;2022-10-23T04:58:21;9.40;;;8.20;;
13331;SDS011;6735;51.456;12.626;2022-10-23T05:00:47;8.63;;;7.77;;
13331;SDS011;6735;51.456;12.626;2022-10-23T05:03:13;11.07;;;8.63;;
13331;SDS011;6735;51.456;12.626;2022-10-23T05:05:40;11.20;;;9.90;;
13331;SDS011;6735;51.456;12.626;2022-10-23T05:08:06;9.67;;;8.63;;
13331;SDS011;6735;51.456;12.626;2022-10-23T05:10:32;12.37;;;9.37;;
13331;SDS011;6735;51.456;12.626;2022-10-23T05:12:57;12.07;;;8.70;;
13331;SDS011;6735;51.456;12.626;2022-10-23T05:15:23;11.43;;;8.50;;
13331;SDS011;6735;51.456;12.626;2022-10-23T05:17:49;8.83;;;8.03;;
13331;SDS011;6735;51.456;12.626;2022-10-23T05:20:19;11.10;;;9.17;;
13331;SDS011;6735;51.456;12.626;2022-10-23T05:22:48;8.77;;;7.90;;
13331;SDS011;6735;51.456;12.626;2022-10-23T05:25:16;9.60;;;8.03;;
13331;SDS011;6735;51.456;12.626;2022-10-23T05:27:41;9.80;;;8.80;;
13331;SDS011;6735;51.456;12.626;2022-10-23T05:30:07;9.10;;;8.20;;
13331;SDS011;6735;51.456;12.626;2022-10-23T05:32:33;9.03;;;8.20;;
13331;SDS011;6735;51.456;12.626;2022-10-23T05:35:00;9.80;;;8.80;;
13331;SDS011;6735;51.456;12.626;2022-10-23T05:37:30;10.63;;;9.23;;
13331;SDS011;6735;51.456;12.626;2022-10-23T05:39:56;10.70;;;8.77;;
13331;SDS011;6735;51.456;12.626;2022-10-23T05:42:21;12.00;;;9.13;;
13331;SDS011;6735;51.456;12.626;2022-10-23T05:44:47;11.27;;;8.50;;
13331;SDS011;6735;51.456;12.626;2022-10-23T05:47:12;8.77;;;7.97;;
13331;SDS011;6735;51.456;12.626;2022-10-23T05:49:37;9.73;;;7.47;;
13331;SDS011;6735;51.456;12.626;2022-10-23T05:52:03;8.43;;;7.57;;
13331;SDS011;6735;51.456;12.626;2022-10-23T05:54:28;9.97;;;6.87;;
13331;SDS011;6735;51.456;12.626;2022-10-23T05:56:54;8.10;;;7.40;;
13331;SDS011;6735;51.456;12.626;2022-10-23T05:59:20;9.50;;;7.37;;
13331;SDS011;6735;51.456;12.626;2022-10-23T06:01:46;10.43;;;7.80;;
13331;SDS011;6735;51.456;12.626;2022-10-23T06:04:11;8.40;;;7.60;;
13331;SDS011;6735;51.456;12.626;2022-10-23T06:06:37;10.50;;;8.30;;
13331;SDS011;6735;51.456;12.626;2022-10-23T06:09:03;9.30;;;8.30;;
13331;SDS011;6735;51.456;12.626;2022-10-23T06:11:28;10.57;;;9.50;;
13331;SDS011;6735;51.456;12.626;2022-10-23T06:13:54;9.20;;;8.30;;
13331;SDS011;6735;51.456;12.626;2022-10-23T06:16:21;11.53;;;9.33;;
13331;SDS011;6735;51.456;12.626;2022-10-23T06:18:49;9.00;;;8.20;;
13331;SDS011;6735;51.456;12.626;2022-10-23T06:21:15;11.23;;;9.77;;
13331;SDS011;6735;51.456;12.626;2022-10-23T06:23:41;22.93;;;13.87;;
13331;SDS011;6735;51.456;12.626;2022-10-23T06:26:08;12.10;;;10.90;;
13331;SDS011;6735;51.456;12.626;2022-10-23T06:28:36;12.77;;;10.30;;
13331;SDS011;6735;51.456;12.626;2022-10-23T06:31:03;12.03;;;10.00;;
13331;SDS011;6735;51.456;12.626;2022-10-23T06:33:29;12.53;;;10.53;;
13331;SDS011;6735;51.456;12.626;2022-10-23T06:35:55;11.17;;;9.97;;
13331;SDS011;6735;51.456;12.626;2022-10-23T06:38:21;11.47;;;10.23;;
13331;SDS011;6735;51.456;12.626;2022-10-23T06:40:50;11.47;;;10.13;;
13331;SDS011;6735;51.456;12.626;2022-10-23T06:43:17;13.40;;;10.17;;
13331;SDS011;6735;51.456;12.626;2022-10-23T06:45:43;13.57;;;9.83;;
13331;SDS011;6735;51.456;12.626;2022-10-23T06:48:08;10.13;;;9.03;;
13331;SDS011;6735;51.456;12.626;2022-10-23T06:50:35;13.60;;;9.33;;
13331;SDS011;6735;51.456;12.626;2022-10-23T06:53:01;11.10;;;8.90;;
13331;SDS011;6735;51.456;12.626;2022-10-23T06:55:29;10.00;;;9.00;;
13331;SDS011;6735;51.456;12.626;2022-10-23T06:57:55;10.57;;;8.40;;
13331;SDS011;6735;51.456;12.626;2022-10-23T07:00:20;9.90;;;8.80;;
13331;SDS011;6735;51.456;12.626;2022-10-23T07:02:46;9.83;;;8.83;;
13331;SDS011;6735;51.456;12.626;2022-10-23T07:05:11;11.20;;;9.30;;
13331;SDS011;6735;51.456;12.626;2022-10-23T07:07:37;12.93;;;8.60;;
13331;SDS011;6735;51.456;12.626;2022-10-23T07:10:03;8.10;;;7.30;;
13331;SDS011;6735;51.456;12.626;2022-10-23T07:12:29;7.83;;;7.10;;
13331;SDS011;6735;51.456;12.626;2022-10-23T07:14:54;8.43;;;7.53;;
13331;SDS011;6735;51.456;12.626;2022-10-23T07:17:20;7.33;;;6.60;;
13331;SDS011;6735;51.456;12.626;2022-10-23T07:19:46;9.37;;;6.83;;
13331;SDS011;6735;51.456;12.626;2022-10-23T07:22:11;8.17;;;6.60;;
13331;SDS011;6735;51.456;12.626;2022-10-23T07:24:37;7.50;;;6.27;;
13331;SDS011;6735;51.456;12.626;2022-10-23T07:27:04;6.53;;;5.90;;
13331;SDS011;6735;51.456;12.626;2022-10-23T07:29:30;8.40;;;6.30;;
13331;SDS011;6735;51.456;12.626;2022-10-23T07:31:56;9.13;;;5.90;;
13331;SDS011;6735;51.456;12.626;2022-10-23T07:34:22;5.33;;;4.87;;
13331;SDS011;6735;51.456;12.626;2022-10-23T07:36:48;6.07;;;5.40;;
13331;SDS011;6735;51.456;12.626;2022-10-23T07:39:14;5.83;;;5.20;;
13331;SDS011;6735;51.456;12.626;2022-10-23T07:41:39;6.33;;;5.07;;
13331;SDS011;6735;51.456;12.626;2022-10-23T07:44:05;6.30;;;4.67;;
13331;SDS011;6735;51.456;12.626;2022-10-23T07:46:30;4.83;;;4.20;;
13331;SDS011;6735;51.456;12.626;2022-10-23T07:48:56;7.80;;;4.57;;
13331;SDS011;6735;51.456;12.626;2022-10-23T07:51:21;8.37;;;4.40;;
13331;SDS011;6735;51.456;12.626;2022-10-23T07:53:47;6.53;;;4.60;;
13331;SDS011;6735;51.456;12.626;2022-10-23T07:58:40;4.50;;;4.10;;
13331;SDS011;6735;51.456;12.626;2022-10-23T08:01:11;4.53;;;3.87;;
13331;SDS011;6735;51.456;12.626;2022-10-23T08:03:42;5.03;;;3.60;;
13331;SDS011;6735;51.456;12.626;2022-10-23T08:06:07;5.27;;;3.47;;
13331;SDS011;6735;51.456;12.626;2022-10-23T08:08:33;5.57;;;4.17;;
13331;SDS011;6735;51.456;12.626;2022-10-23T08:10:58;6.77;;;3.77;;
13331;SDS011;6735;51.456;12.626;2022-10-23T08:13:24;5.77;;;3.90;;
13331;SDS011;6735;51.456;12.626;2022-10-23T08:15:49;5.07;;;3.67;;
13331;SDS011;6735;51.456;12.626;2022-10-23T08:18:16;7.83;;;3.90;;
13331;SDS011;6735;51.456;12.626;2022-10-23T08:20:43;5.33;;;3.73;;
13331;SDS011;6735;51.456;12.626;2022-10-23T08:23:11;12.07;;;4.30;;
13331;SDS011;6735;51.456;12.626;2022-10-23T08:25:38;4.10;;;3.73;;
13331;SDS011;6735;51.456;12.626;2022-10-23T08:28:04;6.87;;;4.13;;
13331;SDS011;6735;51.456;12.626;2022-10-23T08:30:31;5.33;;;4.10;;
13331;SDS011;6735;51.456;12.626;2022-10-23T08:32:56;7.23;;;4.20;;
13331;SDS011;6735;51.456;12.626;2022-10-23T08:35:22;6.13;;;4.07;;
13331;SDS011;6735;51.456;12.626;2022-10-23T08:37:47;6.43;;;4.30;;
13331;SDS011;6735;51.456;12.626;2022-10-23T08:40:14;4.57;;;3.90;;
13331;SDS011;6735;51.456;12.626;2022-10-23T08:42:56;4.40;;;3.87;;
13331;SDS011;6735;51.456;12.626;2022-10-23T08:45:34;5.63;;;3.77;;
13331;SDS011;6735;51.456;12.626;2022-10-23T08:48:24;5.20;;;3.50;;
13331;SDS011;6735;51.456;12.626;2022-10-23T08:51:04;7.13;;;3.50;;
13331;SDS011;6735;51.456;12.626;2022-10-23T08:56:16;4.07;;;3.37;;
13331;SDS011;6735;51.456;12.626;2022-10-23T09:04:32;7.10;;;3.50;;
13331;SDS011;6735;51.456;12.626;2022-10-23T09:07:17;7.03;;;3.37;;
13331;SDS011;6735;51.456;12.626;2022-10-23T09:12:52;5.87;;;3.43;;
13331;SDS011;6735;51.456;12.626;2022-10-23T09:15:30;6.90;;;3.80;;
13331;SDS011;6735;51.456;12.626;2022-10-23T09:18:12;3.37;;;3.07;;
13331;SDS011;6735;51.456;12.626;2022-10-23T09:20:40;6.57;;;3.40;;
13331;SDS011;6735;51.456;12.626;2022-10-23T09:23:14;7.07;;;3.47;;
13331;SDS011;6735;51.456;12.626;2022-10-23T09:25:43;5.23;;;3.40;;
13331;SDS011;6735;51.456;12.626;2022-10-23T09:28:31;6.10;;;3.33;;
13331;SDS011;6735;51.456;12.626;2022-10-23T09:31:09;4.93;;;3.43;;
13331;SDS011;6735;51.456;12.626;2022-10-23T09:33:37;6.87;;;3.67;;
13331;SDS011;6735;51.456;12.626;2022-10-23T09:36:05;4.27;;;3.30;;
13331;SDS011;6735;51.456;12.626;2022-10-23T09:43:46;5.70;;;3.00;;
13331;SDS011;6735;51.456;12.626;2022-10-23T09:46:23;5.10;;;2.90;;
13331;SDS011;6735;51.456;12.626;2022-10-23T09:48:56;3.63;;;2.70;;
13331;SDS011;6735;51.456;12.626;2022-10-23T09:51:22;4.73;;;2.93;;
13331;SDS011;6735;51.456;12.626;2022-10-23T09:53:49;4.60;;;3.23;;
13331;SDS011;6735;51.456;12.626;2022-10-23T09:59:01;4.67;;;3.23;;
13331;SDS011;6735;51.456;12.626;2022-10-23T10:01:33;6.00;;;3.40;;
13331;SDS011;6735;51.456;12.626;2022-10-23T10:04:09;5.73;;;3.00;;
13331;SDS011;6735;51.456;12.626;2022-10-23T10:06:34;5.27;;;3.03;;
13331;SDS011;6735;51.456;12.626;2022-10-23T10:09:13;5.63;;;2.80;;
13331;SDS011;6735;51.456;12.626;2022-10-23T10:25:18;3.13;;;2.83;;
13331;SDS011;6735;51.456;12.626;2022-10-23T10:27:59;4.83;;;2.57;;
13331;SDS011;6735;51.456;12.626;2022-10-23T10:30:35;2.67;;;2.47;;
13331;SDS011;6735;51.456;12.626;2022-10-23T10:33:17;2.77;;;2.57;;
13331;SDS011;6735;51.456;12.626;2022-10-23T10:35:56;3.40;;;2.73;;
13331;SDS011;6735;51.456;12.626;2022-10-23T10:38:40;2.70;;;2.50;;
13331;SDS011;6735;51.456;12.626;2022-10-23T10:44:03;4.37;;;2.80;;
13331;SDS011;6735;51.456;12.626;2022-10-23T10:49:23;5.13;;;2.57;;
13331;SDS011;6735;51.456;12.626;2022-10-23T10:51:58;4.67;;;2.73;;
13331;SDS011;6735;51.456;12.626;2022-10-23T10:57:46;3.37;;;2.77;;
13331;SDS011;6735;51.456;12.626;2022-10-23T11:00:19;4.00;;;2.43;;
13331;SDS011;6735;51.456;12.626;2022-10-23T11:02:47;3.40;;;2.63;;
13331;SDS011;6735;51.456;12.626;2022-10-23T11:05:42;3.30;;;2.30;;
13331;SDS011;6735;51.456;12.626;2022-10-23T11:08:15;5.47;;;2.43;;
13331;SDS011;6735;51.456;12.626;2022-10-23T11:10:47;3.23;;;2.50;;
13331;SDS011;6735;51.456;12.626;2022-10-23T11:13:31;2.90;;;2.30;;
13331;SDS011;6735;51.456;12.626;2022-10-23T11:16:00;3.03;;;2.47;;
13331;SDS011;6735;51.456;12.626;2022-10-23T11:18:36;4.57;;;2.73;;
13331;SDS011;6735;51.456;12.626;2022-10-23T11:21:24;5.10;;;2.30;;
13331;SDS011;6735;51.456;12.626;2022-10-23T11:26:56;3.63;;;2.80;;
13331;SDS011;6735;51.456;12.626;2022-10-23T11:32:27;3.17;;;2.33;;
13331;SDS011;6735;51.456;12.626;2022-10-23T11:40:41;5.67;;;2.47;;
13331;SDS011;6735;51.456;12.626;2022-10-23T11:43:45;3.73;;;2.37;;
13331;SDS011;6735;51.456;12.626;2022-10-23T11:48:45;3.13;;;2.60;;
13331;SDS011;6735;51.456;12.626;2022-10-23T11:57:13;2.60;;;2.40;;
13331;SDS011;6735;51.456;12.626;2022-10-23T11:59:35;3.27;;;2.97;;
13331;SDS011;6735;51.456;12.626;2022-10-23T12:05:03;4.13;;;2.50;;
13331;SDS011;6735;51.456;12.626;2022-10-23T12:07:37;4.80;;;2.43;;
13331;SDS011;6735;51.456;12.626;2022-10-23T12:10:18;4.57;;;2.50;;
13331;SDS011;6735;51.456;12.626;2022-10-23T12:12:53;3.97;;;2.40;;
13331;SDS011;6735;51.456;12.626;2022-10-23T12:15:23;4.13;;;2.70;;
13331;SDS011;6735;51.456;12.626;2022-10-23T12:17:51;2.93;;;2.50;;
13331;SDS011;6735;51.456;12.626;2022-10-23T12:23:00;3.60;;;2.67;;
13331;SDS011;6735;51.456;12.626;2022-10-23T12:30:59;4.53;;;2.43;;
13331;SDS011;6735;51.456;12.626;2022-10-23T12:33:47;2.93;;;2.37;;
13331;SDS011;6735;51.456;12.626;2022-10-23T12:36:38;5.40;;;2.40;;
13331;SDS011;6735;51.456;12.626;2022-10-23T12:39:24;2.90;;;2.47;;
13331;SDS011;6735;51.456;12.626;2022-10-23T12:41:49;3.30;;;2.47;;
13331;SDS011;6735;51.456;12.626;2022-10-23T12:44:15;3.53;;;2.70;;
13331;SDS011;6735;51.456;12.626;2022-10-23T12:46:41;4.53;;;2.60;;
13331;SDS011;6735;51.456;12.626;2022-10-23T12:49:15;3.40;;;2.40;;
13331;SDS011;6735;51.456;12.626;2022-10-23T12:51:43;4.43;;;2.40;;
13331;SDS011;6735;51.456;12.626;2022-10-23T12:54:16;3.93;;;2.50;;
13331;SDS011;6735;51.456;12.626;2022-10-23T12:56:43;5.57;;;2.90;;
13331;SDS011;6735;51.456;12.626;2022-10-23T12:59:12;3.20;;;2.90;;
13331;SDS011;6735;51.456;12.626;2022-10-23T13:01:44;3.17;;;2.40;;
13331;SDS011;6735;51.456;12.626;2022-10-23T13:06:48;4.10;;;2.50;;
13331;SDS011;6735;51.456;12.626;2022-10-23T13:09:22;5.70;;;2.20;;
13331;SDS011;6735;51.456;12.626;2022-10-23T13:11:55;3.47;;;2.33;;
13331;SDS011;6735;51.456;12.626;2022-10-23T13:14:29;3.57;;;2.50;;
13331;SDS011;6735;51.456;12.626;2022-10-23T13:16:59;6.23;;;2.73;;
13331;SDS011;6735;51.456;12.626;2022-10-23T13:19:28;3.23;;;2.87;;
13331;SDS011;6735;51.456;12.626;2022-10-23T13:21:54;4.03;;;2.53;;
13331;SDS011;6735;51.456;12.626;2022-10-23T13:24:20;4.70;;;2.50;;
13331;SDS011;6735;51.456;12.626;2022-10-23T13:26:49;5.13;;;2.60;;
13331;SDS011;6735;51.456;12.626;2022-10-23T13:31:52;2.97;;;2.30;;
13331;SDS011;6735;51.456;12.626;2022-10-23T13:34:21;4.80;;;3.07;;
13331;SDS011;6735;51.456;12.626;2022-10-23T13:37:02;4.10;;;2.80;;
13331;SDS011;6735;51.456;12.626;2022-10-23T13:40:06;4.80;;;3.00;;
13331;SDS011;6735;51.456;12.626;2022-10-23T13:42:48;5.30;;;2.77;;
13331;SDS011;6735;51.456;12.626;2022-10-23T13:45:15;4.17;;;2.83;;
13331;SDS011;6735;51.456;12.626;2022-10-23T13:47:44;7.07;;;3.40;;
13331;SDS011;6735;51.456;12.626;2022-10-23T13:50:09;4.03;;;3.17;;
13331;SDS011;6735;51.456;12.626;2022-10-23T13:52:35;3.90;;;3.50;;
13331;SDS011;6735;51.456;12.626;2022-10-23T13:55:01;6.80;;;5.77;;
13331;SDS011;6735;51.456;12.626;2022-10-23T13:57:28;4.67;;;3.30;;
13331;SDS011;6735;51.456;12.626;2022-10-23T13:59:53;4.80;;;3.00;;
13331;SDS011;6735;51.456;12.626;2022-10-23T14:02:20;5.83;;;3.77;;
13331;SDS011;6735;51.456;12.626;2022-10-23T14:04:47;4.47;;;3.60;;
13331;SDS011;6735;51.456;12.626;2022-10-23T14:07:14;5.30;;;4.80;;
13331;SDS011;6735;51.456;12.626;2022-10-23T14:09:39;5.13;;;3.93;;
13331;SDS011;6735;51.456;12.626;2022-10-23T14:12:05;5.03;;;4.00;;
13331;SDS011;6735;51.456;12.626;2022-10-23T14:14:31;7.20;;;4.13;;
13331;SDS011;6735;51.456;12.626;2022-10-23T14:16:57;6.00;;;4.23;;
13331;SDS011;6735;51.456;12.626;2022-10-23T14:19:23;6.37;;;4.80;;
13331;SDS011;6735;51.456;12.626;2022-10-23T14:21:48;7.10;;;5.67;;
13331;SDS011;6735;51.456;12.626;2022-10-23T14:24:14;7.20;;;5.83;;
13331;SDS011;6735;51.456;12.626;2022-10-23T14:26:39;7.43;;;4.70;;
13331;SDS011;6735;51.456;12.626;2022-10-23T14:29:06;7.13;;;6.00;;
13331;SDS011;6735;51.456;12.626;2022-10-23T14:31:32;5.83;;;4.60;;
13331;SDS011;6735;51.456;12.626;2022-10-23T14:33:57;5.37;;;4.87;;
13331;SDS011;6735;51.456;12.626;2022-10-23T14:36:24;5.83;;;4.67;;
13331;SDS011;6735;51.456;12.626;2022-10-23T14:38:53;5.23;;;4.77;;
13331;SDS011;6735;51.456;12.626;2022-10-23T14:41:23;7.40;;;5.37;;
13331;SDS011;6735;51.456;12.626;2022-10-23T14:43:49;6.17;;;5.50;;
13331;SDS011;6735;51.456;12.626;2022-10-23T14:46:16;6.17;;;5.57;;
13331;SDS011;6735;51.456;12.626;2022-10-23T14:48:43;7.53;;;6.30;;
13331;SDS011;6735;51.456;12.626;2022-10-23T14:51:19;6.83;;;6.23;;
13331;SDS011;6735;51.456;12.626;2022-10-23T14:53:53;9.00;;;5.83;;
13331;SDS011;6735;51.456;12.626;2022-10-23T14:56:20;7.37;;;6.30;;
13331;SDS011;6735;51.456;12.626;2022-10-23T14:58:47;8.27;;;5.40;;
13331;SDS011;6735;51.456;12.626;2022-10-23T15:01:12;6.43;;;5.83;;
13331;SDS011;6735;51.456;12.626;2022-10-23T15:03:38;6.37;;;5.73;;
13331;SDS011;6735;51.456;12.626;2022-10-23T15:06:05;9.17;;;5.90;;
13331;SDS011;6735;51.456;12.626;2022-10-23T15:08:31;7.63;;;5.70;;
13331;SDS011;6735;51.456;12.626;2022-10-23T15:10:59;6.80;;;6.10;;
13331;SDS011;6735;51.456;12.626;2022-10-23T15:13:26;10.07;;;5.80;;
13331;SDS011;6735;51.456;12.626;2022-10-23T15:16:05;6.73;;;5.83;;
13331;SDS011;6735;51.456;12.626;2022-10-23T15:18:32;9.40;;;6.73;;
13331;SDS011;6735;51.456;12.626;2022-10-23T15:21:00;6.90;;;6.20;;
13331;SDS011;6735;51.456;12.626;2022-10-23T15:23:27;6.77;;;5.70;;
13331;SDS011;6735;51.456;12.626;2022-10-23T15:25:53;7.43;;;5.67;;
13331;SDS011;6735;51.456;12.626;2022-10-23T15:28:19;6.87;;;5.60;;
13331;SDS011;6735;51.456;12.626;2022-10-23T15:30:45;6.83;;;6.13;;
13331;SDS011;6735;51.456;12.626;2022-10-23T15:33:10;6.50;;;5.90;;
13331;SDS011;6735;51.456;12.626;2022-10-23T15:35:36;9.00;;;5.90;;
13331;SDS011;6735;51.456;12.626;2022-10-23T15:38:02;8.27;;;6.00;;
13331;SDS011;6735;51.456;12.626;2022-10-23T15:40:27;7.77;;;6.30;;
13331;SDS011;6735;51.456;12.626;2022-10-23T15:42:53;9.30;;;8.47;;
13331;SDS011;6735;51.456;12.626;2022-10-23T15:45:18;7.80;;;7.00;;
13331;SDS011;6735;51.456;12.626;2022-10-23T15:47:44;11.90;;;6.60;;
13331;SDS011;6735;51.456;12.626;2022-10-23T15:50:09;8.07;;;7.27;;
13331;SDS011;6735;51.456;12.626;2022-10-23T15:52:35;8.67;;;6.63;;
13331;SDS011;6735;51.456;12.626;2022-10-23T15:55:00;8.80;;;6.37;;
13331;SDS011;6735;51.456;12.626;2022-10-23T15:57:26;8.90;;;6.53;;
13331;SDS011;6735;51.456;12.626;2022-10-23T15:59:51;7.00;;;6.30;;
13331;SDS011;6735;51.456;12.626;2022-10-23T16:02:17;8.43;;;7.53;;
13331;SDS011;6735;51.456;12.626;2022-10-23T16:04:42;10.97;;;9.00;;
13331;SDS011;6735;51.456;12.626;2022-10-23T16:07:08;8.23;;;6.27;;
13331;SDS011;6735;51.456;12.626;2022-10-23T16:09:33;8.23;;;6.90;;
13331;SDS011;6735;51.456;12.626;2022-10-23T16:11:59;9.10;;;6.13;;
13331;SDS011;6735;51.456;12.626;2022-10-23T16:14:24;9.40;;;7.60;;
13331;SDS011;6735;51.456;12.626;2022-10-23T16:16:50;9.13;;;6.90;;
13331;SDS011;6735;51.456;12.626;2022-10-23T16:19:15;7.70;;;6.37;;
13331;SDS011;6735;51.456;12.626;2022-10-23T16:21:42;7.47;;;6.77;;
13331;SDS011;6735;51.456;12.626;2022-10-23T16:24:08;7.30;;;6.47;;
13331;SDS011;6735;51.456;12.626;2022-10-23T16:26:34;9.70;;;6.07;;
13331;SDS011;6735;51.456;12.626;2022-10-23T16:29:01;7.10;;;5.40;;
13331;SDS011;6735;51.456;12.626;2022-10-23T16:31:29;6.70;;;4.63;;
13331;SDS011;6735;51.456;12.626;2022-10-23T16:33:58;6.70;;;5.37;;
13331;SDS011;6735;51.456;12.626;2022-10-23T16:36:25;4.37;;;3.93;;
13331;SDS011;6735;51.456;12.626;2022-10-23T16:38:51;5.93;;;3.40;;
13331;SDS011;6735;51.456;12.626;2022-10-23T16:41:16;5.27;;;3.60;;
13331;SDS011;6735;51.456;12.626;2022-10-23T16:43:42;3.30;;;3.00;;